Home > Products > Valid Products > MTR

000
SAUS45 KGGW 200949
MTRJDN
METAR KJDN 200948Z AUTO 25004KT 10/07 A2998 RMK AO1 SLP147 T01000067





000
SAUS45 KGGW 200849
MTRJDN
METAR KJDN 200848Z AUTO 28008KT 12/08 A2997 RMK AO1 SLP142 T01170078
51014





000
SAUS45 KGGW 200749
MTRJDN
METAR KJDN 200748Z AUTO 26008KT 12/08 A2996 RMK AO1 SLP139 T01170078





000
SAUS45 KGGW 200649
MTRJDN
METAR KJDN 200648Z AUTO 27007KT 12/08 A2994 RMK AO1 SLP133 T01170083
402560100





000
SAUS45 KGGW 200549
MTRJDN
METAR KJDN 200548Z AUTO 30004KT 11/08 A2993 RMK AO1 SLP129 T01110083
10222 20111 51014





000
SAUS45 KGGW 200449
MTRJDN
METAR KJDN 200448Z AUTO 30006KT 12/09 A2991 RMK AO1 SLP124 T01170089





000
SAUS45 KGGW 200349
MTRJDN
METAR KJDN 200348Z AUTO 28005KT 13/09 A2991 RMK AO1 SLP121 T01330094





000
SAUS45 KGGW 200249
MTRJDN
METAR KJDN 200248Z AUTO 29004KT 15/09 A2988 RMK AO1 SLP115 T01500094
51014





000
SAUS45 KGGW 200149
MTRJDN
METAR KJDN 200148Z AUTO 29010G16KT 18/09 A2988 RMK AO1 SLP115
T01830094





000
SAUS45 KGGW 200049
MTRJDN
METAR KJDN 200048Z AUTO 28006KT 21/09 A2985 RMK AO1 SLP107 T02060089





000
SAUS45 KGGW 192349
MTRJDN
METAR KJDN 192348Z AUTO 30008KT 22/09 A2984 RMK AO1 SLP100 T02220089
10256 20222 53006





000
SAUS45 KGGW 192249
MTRJDN
METAR KJDN 192248Z AUTO 32016G24KT 24/07 A2983 RMK AO1 SLP092
T02390067





000
SAUS45 KGGW 192149
MTRJDN
METAR KJDN 192148Z AUTO 29016G24KT 24/08 A2982 RMK AO1 SLP091
T02390078





000
SAUS45 KGGW 192049
MTRJDN
METAR KJDN 192048Z AUTO 29018G23KT 24/08 A2982 RMK AO1 SLP085
T02440083 53003





000
SAUS45 KGGW 191949
MTRJDN
METAR KJDN 191948Z AUTO 29017G25KT 24/08 A2980 RMK AO1 SLP081
T02390078





000
SAUS45 KGGW 191852
MTRJDN
METAR KJDN 191848Z AUTO 28015G21KT 24/09 A2981 RMK AO1 SLP084
T02390094
N
NO CARRIER

RING

CONNECT 1200

BOIMTRSNT ALL
TTAA00 KSNT 191851
METAR KSNT 191851Z AUTO 36006KT 21/02 A3019 RMK AO1 SLP144 T02060022





000
SAUS45 KGGW 191750
MTRJDN
METAR KJDN 191748Z AUTO 28015G21KT 23/09 A2981 RMK AO1 SLP083
T02280094 10228 20100 53013





000
SAUS45 KGGW 191650
MTRJDN
METAR KJDN 191648Z AUTO 28019G24KT 21/08 A2980 RMK AO1 SLP081
T02060083





000
SAUS45 KGGW 191549
MTRJDN
METAR KJDN 191548Z AUTO 27014G23KT 22/09 A2978 RMK AO1 SLP073
T02170094





000
SAUS45 KGGW 191449
MTRJDN
METAR KJDN 191448Z AUTO 28007KT 17/11 A2977 RMK AO1 SLP072 T01720106
51015





000
SAUS45 KGGW 191349
MTRJDN
METAR KJDN 191348Z AUTO 29006KT 12/09 A2976 RMK AO1 SLP074 T01170094





000
SAUS45 KGGW 191249
MTRJDN
METAR KJDN 191248Z AUTO 29005KT 11/09 A2973 RMK AO1 SLP065 T01060094





000
SAUS45 KGGW 191149
MTRJDN
METAR KJDN 191148Z AUTO 28005KT 11/10 A2972 RMK AO1 SLP056 T01110100
10178 20111 53009





000
SAUS45 KGGW 191049
MTRJDN
METAR KJDN 191048Z AUTO 28007KT 13/11 A2971 RMK AO1 SLP049 T01330111





000
SAUS45 KGGW 190949
MTRJDN
METAR KJDN 190948Z AUTO 30007KT 13/11 A2969 RMK AO1 SLP042 T01280111





000
SAUS45 KGGW 190849
MTRJDN
METAR KJDN 190848Z AUTO 26007KT 16/13 A2969 RMK AO1 SLP040 T01610128
53005





000
SAUS45 KGGW 190749
MTRJDN
METAR KJDN 190748Z AUTO 29008KT 16/13 A2969 RMK AO1 SLP044 T01610133





000
SAUS45 KGGW 190649
MTRJDN
METAR KJDN 190648Z AUTO 28003KT 16/13 A2967 RMK AO1 SLP038 T01610128
402830100





000
SAUS45 KGGW 190549
MTRJDN
METAR KJDN 190548Z AUTO 00000KT 17/13 A2968 RMK AO1 SLP038 T01720128
10239 20156 51001





000
SAUS45 KGGW 190449
MTRJDN
METAR KJDN 190448Z AUTO 31003KT 18/13 A2967 RMK AO1 SLP034 T01780128





000
SAUS45 KGGW 190349
MTRJDN
METAR KJDN 190348Z AUTO 27003KT 17/13 A2968 RMK AO1 SLP041 T01670128





000
SAUS45 KGGW 190249
MTRJDN
METAR KJDN 190248Z AUTO 00000KT 18/13 A2967 RMK AO1 SLP042 T01780133
53009





000
SAUS45 KGGW 190149
MTRJDN
METAR KJDN 190148Z AUTO 00000KT 18/14 A2965 RMK AO1 SLP037 T01830139





000
SAUS45 KGGW 190049
MTRJDN
METAR KJDN 190048Z AUTO 00000KT 21/15 A2964 RMK AO1 SLP030 T02060150





000
SAUS45 KGGW 182349
MTRJDN
METAR KJDN 182348Z AUTO 34007KT 24/15 A2964 RMK AO1 SLP031 T02390150
10283 20217 53001





000
SAUS45 KGGW 182249
MTRJDN
METAR KJDN 182248Z AUTO 29008KT 27/12 A2964 RMK AO1 SLP025 T02720122





000
SAUS45 KGGW 182149
MTRJDN
METAR KJDN 182148Z AUTO 28011KT 28/13 A2964 RMK AO1 SLP027 T02780128





000
SAUS45 KGGW 182049
MTRJDN
METAR KJDN 182048Z AUTO 26008G18KT 27/11 A2964 RMK AO1 SLP024
T02670111 58013





000
SAUS45 KGGW 181949
MTRJDN
METAR KJDN 181948Z AUTO 28007KT 22/12 A2966 RMK AO1 SLP036 T02170122





000
SAUS45 KGGW 181849
MTRJDN
METAR KJDN 181848Z AUTO 27014G23KT 23/11 A2970 RMK AO1 PK WND
24028/1823 SLP045 T02280106





000
SAUS45 KGGW 181749
MTRJDN
METAR KJDN 181748Z AUTO 22020G26KT 23/10 A2968 RMK AO1 PK WND
22026/1747 SLP040 T02280100 10233 20106 55002





000
SAUS45 KGGW 181649
MTRJDN
METAR KJDN 181648Z AUTO 21010KT 23/12 A2968 RMK AO1 SLP036 T02330117





000
SAUS45 KGGW 181549
MTRJDN
METAR KJDN 181548Z AUTO 24005KT 22/12 A2969 RMK AO1 SLP043 T02170122





000
SAUS45 KGGW 181449
MTRJDN
METAR KJDN 181448Z AUTO 00000KT 16/12 A2969 RMK AO1 SLP047 T01560117
58004





000
SAUS45 KGGW 181349
MTRJDN
METAR KJDN 181348Z AUTO 00000KT 12/09 A2969 RMK AO1 SLP052 T01170094





000
SAUS45 KGGW 181249
MTRJDN
METAR KJDN 181248Z AUTO 27004KT 13/10 A2970 RMK AO1 SLP051 T01330100





000
SAUS45 KGGW 181149
MTRJDN
METAR KJDN 181148Z AUTO 00000KT 11/09 A2970 RMK AO1 SLP049 T01060089
10172 20100 58013





000
SAUS45 KGGW 181049
MTRJDN
METAR KJDN 181048Z AUTO 00000KT 11/09 A2972 RMK AO1 SLP053 T01110094





000
SAUS45 KGGW 180950
MTRJDN
METAR KJDN 180948Z AUTO 00000KT 11/09 A2973 RMK AO1 SLP058 T01110089





000
SAUS45 KGGW 180849
MTRJDN
METAR KJDN 180848Z AUTO 11003KT 14/10 A2975 RMK AO1 SLP059 T01390100
56014





000
SAUS45 KGGW 180749
MTRJDN
METAR KJDN 180748Z AUTO 00000KT 14/10 A2976 RMK AO1 SLP065 T01390100





000
SAUS45 KGGW 180649
MTRJDN
METAR KJDN 180648Z AUTO 10006KT 17/11 A2976 RMK AO1 SLP066 T01670106
402890078





000
SAUS45 KGGW 180549
MTRJDN
METAR KJDN 180548Z AUTO 00000KT 17/09 A2979 RMK AO1 SLP076 T01720094
10272 20167 58007





000
SAUS45 KGGW 180449
MTRJDN
METAR KJDN 180448Z AUTO 22006KT 17/11 A2982 RMK AO1 SLP090 T01720111





000
SAUS45 KGGW 180349
MTRJDN
METAR KJDN 180348Z AUTO 08003KT 18/11 A2981 RMK AO1 SLP088 T01830106





000
SAUS45 KGGW 180249
MTRJDN
METAR KJDN 180248Z AUTO 09007KT 18/09 A2982 RMK AO1 SLP093 T01830094
56001





000
SAUS45 KGGW 180149
MTRJDN
METAR KJDN 180148Z AUTO 10004KT 19/09 A2982 RMK AO1 SLP097 T01890094





000
SAUS45 KGGW 180049
MTRJDN
METAR KJDN 180048Z AUTO 11003KT 22/09 A2982 RMK AO1 SLP094 T02220094





000
SAUS45 KGGW 172349
MTRJDN
METAR KJDN 172348Z AUTO 14006KT 27/07 A2982 RMK AO1 SLP090 T02720072
10289 20239 57009





000
SAUS45 KGGW 172249
MTRJDN
METAR KJDN 172248Z AUTO 14008KT 28/07 A2983 RMK AO1 SLP093 T02830072





000
SAUS45 KGGW 172149
MTRJDN
METAR KJDN 172148Z AUTO 16009KT 28/07 A2984 RMK AO1 SLP096 T02780072





000
SAUS45 KGGW 172049
MTRJDN
METAR KJDN 172048Z AUTO 16009KT 28/07 A2985 RMK AO1 SLP101 T02830067
58012





000
SAUS45 KGGW 171949
MTRJDN
METAR KJDN 171948Z AUTO 17008KT 28/07 A2986 RMK AO1 SLP105 T02780072





000
SAUS45 KGGW 171849
MTRJDN
METAR KJDN 171848Z AUTO 18009KT 26/09 A2988 RMK AO1 SLP112 T02610094





000
SAUS45 KGGW 171749
MTRJDN
METAR KJDN 171748Z AUTO 15011KT 24/09 A2989 RMK AO1 SLP115 T02390089
10239 20078 58003





000
SAUS45 KGGW 171649
MTRJDN
METAR KJDN 171648Z AUTO 10004KT 19/11 A2990 RMK AO1 SLP121 T01940111





000
SAUS45 KGGW 171549
MTRJDN
METAR KJDN 171548Z AUTO 11003KT 17/11 A2989 RMK AO1 SLP120 T01720106





000
SAUS45 KGGW 171449
MTRJDN
METAR KJDN 171448Z AUTO 00000KT 13/10 A2990 RMK AO1 SLP122 T01280100
50002





000
SAUS45 KGGW 171349
MTRJDN
METAR KJDN 171348Z AUTO 00000KT 09/08 A2990 RMK AO1 SLP128 T00890083





000
SAUS45 KGGW 171249
MTRJDN
METAR KJDN 171248Z AUTO 00000KT 08/07 A2990 RMK AO1 SLP122 T00780072





000
SAUS45 KGGW 171149
MTRJDN
METAR KJDN 171148Z AUTO 00000KT 09/08 A2989 RMK AO1 SLP116 T00940078
10111 20078 55003





000
SAUS45 KGGW 171049
MTRJDN
METAR KJDN 171048Z AUTO 00000KT 09/08 A2989 RMK AO1 SLP114 T00940083





    US Dept of Commerce
    National Oceanic and Atmospheric Administration
    National Weather Service
    1325 East West Highway
    Silver Spring, MD 20910
    Page Author: NWS Internet Services Team
Disclaimer
Information Quality
Credits
Glossary
Privacy Policy
Freedom of Information Act (FOIA)
About Us
Career Opportunities